createdAt,value
2023-01-23T01:47:41.737Z,0.79
2023-01-23T01:48:41.712Z,0.70
2023-01-23T01:49:41.683Z,0.71
2023-01-23T01:50:41.656Z,0.73
2023-01-23T01:51:41.633Z,0.76
2023-01-23T01:52:41.583Z,0.77
2023-01-23T01:53:41.562Z,0.74
2023-01-23T01:54:41.532Z,0.69
2023-01-23T01:55:41.491Z,0.70
2023-01-23T01:56:41.477Z,0.73
2023-01-23T01:57:41.422Z,0.77
2023-01-23T01:58:41.383Z,0.78
2023-01-23T01:59:41.334Z,0.71
2023-01-23T02:00:41.358Z,0.71
2023-01-23T02:01:41.294Z,0.70
2023-01-23T02:02:41.218Z,0.75
2023-01-23T02:03:41.190Z,0.76
2023-01-23T02:04:41.152Z,0.76
2023-01-23T02:05:41.106Z,0.71
2023-01-23T02:06:41.085Z,0.71
2023-01-23T02:07:41.036Z,0.73
2023-01-23T02:08:41.011Z,0.77
2023-01-23T02:09:40.961Z,0.77
2023-01-23T02:10:40.936Z,0.76
2023-01-23T02:11:40.900Z,0.70
2023-01-23T02:12:40.861Z,0.71
2023-01-23T02:13:40.820Z,0.75
2023-01-23T02:14:40.798Z,0.77
2023-01-23T02:15:40.765Z,0.77
2023-01-23T02:16:41.037Z,0.75
2023-01-23T02:17:40.682Z,0.70
2023-01-23T02:18:40.651Z,0.71
2023-01-23T02:19:40.617Z,0.73
2023-01-23T02:20:40.582Z,0.76
2023-01-23T02:21:40.530Z,0.78
2023-01-23T02:22:40.522Z,0.72
2023-01-23T02:23:40.461Z,0.71
2023-01-23T02:24:40.435Z,0.69
2023-01-23T02:25:40.399Z,0.72
2023-01-23T02:26:40.379Z,0.76
2023-01-23T02:27:40.338Z,0.79
2023-01-23T02:28:40.316Z,0.72
2023-01-23T02:29:40.309Z,0.70
2023-01-23T02:30:40.279Z,0.71
2023-01-23T02:31:40.271Z,0.72
2023-01-23T02:32:40.245Z,0.77
2023-01-23T02:33:40.108Z,0.77
2023-01-23T02:34:40.084Z,0.73
2023-01-23T02:35:40.045Z,0.71
2023-01-23T02:36:40.009Z,0.74
2023-01-23T02:37:39.976Z,0.75
2023-01-23T02:38:39.947Z,0.78
2023-01-23T02:39:39.911Z,0.77
2023-01-23T02:40:39.871Z,0.70
2023-01-23T02:41:39.854Z,0.71
2023-01-23T02:42:39.820Z,0.73
2023-01-23T02:43:39.774Z,0.75
2023-01-23T02:44:39.723Z,0.77
2023-01-23T02:45:39.720Z,0.74
2023-01-23T02:46:39.649Z,0.69
2023-01-23T02:47:39.617Z,0.72
2023-01-23T02:48:39.666Z,0.73
2023-01-23T02:49:39.542Z,0.75
2023-01-23T02:50:39.517Z,0.79
2023-01-23T02:51:39.473Z,0.74
2023-01-23T02:52:39.432Z,0.70
2023-01-23T02:53:39.418Z,0.73
2023-01-23T02:54:39.356Z,0.73
2023-01-23T02:55:39.336Z,0.77
2023-01-23T02:56:39.275Z,0.76
2023-01-23T02:57:39.245Z,0.71
2023-01-23T02:58:39.202Z,0.68
2023-01-23T02:59:39.164Z,0.73
2023-01-23T03:00:39.156Z,0.73
2023-01-23T03:01:39.088Z,0.77
2023-01-23T03:02:39.055Z,0.77
2023-01-23T03:03:39.014Z,0.72
2023-01-23T03:04:39.075Z,0.69
2023-01-23T03:05:38.948Z,0.74
2023-01-23T03:06:38.916Z,0.75
2023-01-23T05:11:34.511Z,0.68
2023-01-23T05:12:34.562Z,0.69
2023-01-23T05:13:34.439Z,0.72
2023-01-23T05:14:34.415Z,0.73
2023-01-23T05:15:34.407Z,0.70
2023-01-23T05:16:34.329Z,0.66
2023-01-23T05:17:34.309Z,0.70
2023-01-23T05:18:34.275Z,0.71
2023-01-23T05:19:34.252Z,0.72
2023-01-23T05:20:34.230Z,0.74
2023-01-23T05:21:34.187Z,0.66
2023-01-23T05:22:34.150Z,0.67
2023-01-23T05:23:34.156Z,0.68
2023-01-23T05:24:34.086Z,0.73
2023-01-23T05:25:34.054Z,0.73
2023-01-23T05:26:34.016Z,0.74
2023-01-23T05:27:33.984Z,0.68
2023-01-23T05:28:34.031Z,0.71
2023-01-23T05:29:33.914Z,0.71
2023-01-23T05:30:33.962Z,0.73
2023-01-23T05:31:33.897Z,0.72
2023-01-23T05:32:33.808Z,0.73
2023-01-23T05:33:33.803Z,0.66
2023-01-23T05:34:33.758Z,0.69
2023-01-23T05:35:33.724Z,0.70
2023-01-23T05:36:33.699Z,0.74
2023-01-23T05:37:33.659Z,0.73
2023-01-23T05:38:33.643Z,0.70
2023-01-23T05:39:33.603Z,0.68
2023-01-23T05:40:33.555Z,0.67
2023-01-23T05:41:33.536Z,0.70
2023-01-23T05:42:33.491Z,0.73
2023-01-23T05:43:33.463Z,0.74
2023-01-23T05:44:33.512Z,0.71
2023-01-23T05:45:33.403Z,0.65
2023-01-23T05:46:33.417Z,0.67
2023-01-23T05:47:33.366Z,0.68
2023-01-23T05:48:33.355Z,0.74
2023-01-23T05:49:33.252Z,0.74
2023-01-23T05:50:34.465Z,0.70
2023-01-23T05:51:33.204Z,0.68
2023-01-23T05:52:33.155Z,0.70
2023-01-23T05:53:33.117Z,0.70
2023-01-23T05:54:33.087Z,0.71
2023-01-23T05:55:33.075Z,0.74
2023-01-23T05:56:33.036Z,0.70
2023-01-23T05:57:33.007Z,0.69
2023-01-23T05:58:32.967Z,0.68
2023-01-23T05:59:32.948Z,0.72
2023-01-23T06:00:32.990Z,0.73
2023-01-23T06:01:32.861Z,0.74
2023-01-23T06:02:32.856Z,0.70
2023-01-23T06:03:32.832Z,0.67
2023-01-23T06:04:32.757Z,0.67
2023-01-23T06:05:32.731Z,0.70
2023-01-23T06:06:32.698Z,0.74
2023-01-23T06:07:32.687Z,0.74
2023-01-23T06:08:32.652Z,0.70
2023-01-23T06:09:32.595Z,0.69
2023-01-23T06:10:32.532Z,0.69
2023-01-23T06:11:32.489Z,0.70
2023-01-23T06:12:32.452Z,0.74
2023-01-23T06:13:32.424Z,0.74
2023-01-23T06:14:32.389Z,0.67
2023-01-23T06:15:32.411Z,0.70
2023-01-23T06:16:32.425Z,0.67
2023-01-23T06:17:32.321Z,0.71
2023-01-23T06:18:32.239Z,0.73
2023-01-23T06:19:32.206Z,0.75
2023-01-23T06:20:32.196Z,0.70
2023-01-23T06:21:32.143Z,0.70
2023-01-23T06:22:32.097Z,0.71
2023-01-23T06:23:32.071Z,0.73
2023-01-23T06:24:32.037Z,0.76
2023-01-23T06:25:32.013Z,0.73
2023-01-23T06:26:31.969Z,0.70
2023-01-23T06:27:31.950Z,0.69
2023-01-23T06:28:31.919Z,0.71
2023-01-23T06:29:31.879Z,0.71
2023-01-23T06:30:31.866Z,0.72
2023-01-23T06:31:31.964Z,0.71
2023-01-23T06:32:31.871Z,0.71
2023-01-23T06:33:31.747Z,0.69
2023-01-23T06:34:31.724Z,0.71
2023-01-23T06:35:31.711Z,0.72
2023-01-23T06:36:31.654Z,0.72
2023-01-23T06:37:31.639Z,0.73
2023-01-23T06:38:31.612Z,0.71
2023-01-23T06:39:31.583Z,0.74
2023-01-23T06:40:31.554Z,0.75
2023-01-23T06:41:31.518Z,0.78
2023-01-23T06:42:31.487Z,0.77
2023-01-23T06:43:31.471Z,0.74
2023-01-23T06:44:31.489Z,0.74
2023-01-23T06:45:31.405Z,0.75
2023-01-23T06:46:31.413Z,0.78
2023-01-23T06:47:31.360Z,0.78
2023-01-23T06:48:32.038Z,0.78
2023-01-23T06:49:31.288Z,0.79
2023-01-23T06:50:31.233Z,0.78
2023-01-23T06:51:31.219Z,0.79
2023-01-23T06:52:31.185Z,0.81
2023-01-23T06:53:31.147Z,0.85
2023-01-23T06:54:31.128Z,0.91
2023-01-23T06:55:31.052Z,0.98
2023-01-23T06:56:31.032Z,1.03
2023-01-23T06:57:30.995Z,1.09
2023-01-23T06:58:30.967Z,1.11
2023-01-23T06:59:30.908Z,1.14
2023-01-23T07:00:30.905Z,1.16
2023-01-23T07:01:30.888Z,1.19
2023-01-23T07:02:30.918Z,1.26
2023-01-23T07:03:30.795Z,1.28
2023-01-23T07:04:30.843Z,1.29
2023-01-23T07:05:30.740Z,1.32
2023-01-23T07:06:30.704Z,1.32
2023-01-23T07:07:30.685Z,1.37
2023-01-23T07:08:30.630Z,1.37
2023-01-23T07:09:30.610Z,1.38
2023-01-23T07:10:30.562Z,1.39
2023-01-23T07:11:30.533Z,1.42
2023-01-23T07:12:30.504Z,1.43
2023-01-23T07:13:30.487Z,1.46
2023-01-23T07:14:30.418Z,1.49
2023-01-23T07:15:30.382Z,1.48
2023-01-23T07:16:30.398Z,1.50
2023-01-23T07:17:30.305Z,1.54
2023-01-23T07:18:30.396Z,1.54
2023-01-23T07:19:30.240Z,1.50
2023-01-23T07:20:30.329Z,1.49
2023-01-23T07:21:30.178Z,1.55
2023-01-23T07:22:30.114Z,1.51
2023-01-23T07:23:30.095Z,1.59
2023-01-23T07:24:30.036Z,1.64
2023-01-23T07:25:30.020Z,1.70
2023-01-23T07:26:29.954Z,1.75
2023-01-23T07:27:29.923Z,1.81
2023-01-23T07:28:29.872Z,1.88
2023-01-23T07:29:29.868Z,1.89
2023-01-23T07:30:29.855Z,1.91
2023-01-23T07:31:29.831Z,1.96
2023-01-23T07:32:29.691Z,2.05
2023-01-23T07:33:29.665Z,2.24
2023-01-23T07:34:29.611Z,2.26
2023-01-23T07:35:29.555Z,2.27
2023-01-23T07:36:30.620Z,2.30
2023-01-23T07:37:29.480Z,2.37
2023-01-23T07:38:29.459Z,2.49
2023-01-23T07:39:29.390Z,2.78
2023-01-23T07:40:29.332Z,2.80
2023-01-23T07:41:29.352Z,2.88
2023-01-23T07:42:29.288Z,2.91
2023-01-23T07:43:29.192Z,2.91
2023-01-23T07:44:29.157Z,2.93
2023-01-23T07:45:29.152Z,2.98
2023-01-23T07:46:29.089Z,3.00
2023-01-23T07:47:29.030Z,2.98
2023-01-23T07:48:28.987Z,2.97
2023-01-23T07:49:28.924Z,2.97
2023-01-23T07:52:28.891Z,3.10
2023-01-23T10:58:21.569Z,3.99
2023-01-23T11:00:21.606Z,4.15
2023-01-23T11:04:21.410Z,4.16
2023-01-23T11:05:21.630Z,4.16
2023-01-23T11:07:21.205Z,4.24
2023-01-23T11:09:21.124Z,4.18
2023-01-23T11:10:21.083Z,4.25
2023-01-23T11:11:21.088Z,4.13
2023-01-23T11:12:21.042Z,4.10
2023-01-23T11:13:20.943Z,3.97
2023-01-23T11:14:20.926Z,3.94
2023-01-23T11:15:21.306Z,3.95
2023-01-23T11:16:20.867Z,4.01
2023-01-23T11:17:20.802Z,3.82
2023-01-23T11:18:20.861Z,3.82
2023-01-23T11:19:20.720Z,3.84
2023-01-23T11:20:20.761Z,3.82
2023-01-23T11:21:20.625Z,3.80
2023-01-23T11:22:20.613Z,3.71
2023-01-23T11:23:20.557Z,3.68
2023-01-23T11:24:27.780Z,3.66
2023-01-23T11:25:21.684Z,3.67
2023-01-23T11:26:20.415Z,3.67
2023-01-23T11:27:20.402Z,3.67
2023-01-23T11:28:20.339Z,3.68
2023-01-23T11:29:20.298Z,3.66
2023-01-23T11:30:20.274Z,3.62
2023-01-23T11:31:20.291Z,3.70
2023-01-23T11:32:20.308Z,3.60
2023-01-23T11:33:20.150Z,3.56
2023-01-23T11:34:20.101Z,3.50
2023-01-23T11:35:20.475Z,3.40
2023-01-23T11:36:20.104Z,3.49
2023-01-23T11:37:19.972Z,3.44
2023-01-23T11:38:30.311Z,3.44
2023-01-23T11:39:20.868Z,3.45
2023-01-23T11:40:19.823Z,3.49
2023-01-23T11:41:19.772Z,3.57
2023-01-23T11:42:19.735Z,3.72
2023-01-23T11:43:19.697Z,3.97
2023-01-23T11:44:21.116Z,4.10
2023-01-23T11:45:19.846Z,4.14
2023-01-23T11:46:19.650Z,4.51
2023-01-23T11:47:19.531Z,5.54
2023-01-23T11:48:19.503Z,5.37
2023-01-23T11:49:19.446Z,5.04
2023-01-23T11:50:19.396Z,4.94
2023-01-23T11:51:19.346Z,4.96
2023-01-23T11:52:19.387Z,5.01
2023-01-23T11:53:19.546Z,5.07
2023-01-23T11:54:19.236Z,5.18
2023-01-23T11:55:19.676Z,5.27
2023-01-23T11:56:19.116Z,4.97
2023-01-23T11:57:19.073Z,5.06
2023-01-23T11:58:19.010Z,5.21
2023-01-23T11:59:18.972Z,5.50
2023-01-23T12:00:19.243Z,6.01
2023-01-23T14:24:12.538Z,1.92
2023-01-23T14:25:12.504Z,1.90
2023-01-23T14:26:12.598Z,1.98
2023-01-23T14:27:13.206Z,2.07
2023-01-23T14:28:12.409Z,2.11
2023-01-23T14:29:12.419Z,2.08
2023-01-23T14:30:12.359Z,1.98
2023-01-23T14:31:12.364Z,1.94
2023-01-23T14:32:12.390Z,2.00
2023-01-23T14:33:12.238Z,2.07
2023-01-23T14:34:16.378Z,2.10
2023-01-23T14:35:13.141Z,2.02
2023-01-23T14:36:12.114Z,1.90
2023-01-23T14:37:12.067Z,1.95
2023-01-23T14:38:12.039Z,2.02
2023-01-23T14:39:12.017Z,2.00
2023-01-23T14:40:12.874Z,1.93
2023-01-23T14:41:11.930Z,1.85
2023-01-23T14:42:22.812Z,1.90
2023-01-23T14:43:12.868Z,1.91
2023-01-23T14:44:11.816Z,1.92
2023-01-23T14:45:11.775Z,1.95
2023-01-23T14:46:11.829Z,1.86
2023-01-23T14:47:11.709Z,1.84
2023-01-23T14:48:11.749Z,1.88
2023-01-23T14:49:11.627Z,1.90
2023-01-23T14:50:11.609Z,1.93
2023-01-23T14:51:11.557Z,1.89
2023-01-23T14:52:11.524Z,1.79
2023-01-23T14:53:11.475Z,1.82
2023-01-23T14:54:12.142Z,1.86
2023-01-23T14:55:14.838Z,1.88
2023-01-23T14:56:12.345Z,1.89
2023-01-23T14:57:11.304Z,1.86
2023-01-23T14:58:11.296Z,1.80
2023-01-23T14:59:11.296Z,1.82
2023-01-23T15:00:11.182Z,1.88
2023-01-23T15:01:11.166Z,1.89
2023-01-23T15:02:20.408Z,1.80
2023-01-23T15:03:12.162Z,1.81
2023-01-23T15:04:11.118Z,1.79
2023-01-23T15:05:11.000Z,1.81
2023-01-23T15:06:10.961Z,1.85
2023-01-23T15:07:10.909Z,1.88
2023-01-23T15:08:10.875Z,1.69
2023-01-23T15:09:10.840Z,1.73
2023-01-23T15:10:10.788Z,1.80
2023-01-23T15:11:10.755Z,1.81
2023-01-23T15:12:10.701Z,1.87
2023-01-23T15:13:10.673Z,1.72
2023-01-23T15:14:10.623Z,1.71
2023-01-23T15:15:10.576Z,1.76
2023-01-23T15:16:10.532Z,1.82
2023-01-23T15:17:10.495Z,1.80
2023-01-23T15:18:10.439Z,1.80
2023-01-23T15:19:10.406Z,1.72
2023-01-23T15:20:10.456Z,1.68
2023-01-23T15:21:10.314Z,1.77
2023-01-23T15:22:10.271Z,1.82
2023-01-23T15:23:10.269Z,1.85
2023-01-23T15:24:10.331Z,1.82
2023-01-23T15:25:10.174Z,1.83
2023-01-23T15:26:10.111Z,1.83
2023-01-23T15:27:10.075Z,1.84
2023-01-23T15:28:10.034Z,1.86
2023-01-23T15:29:10.039Z,1.83
2023-01-23T15:30:09.973Z,1.84
2023-01-23T15:31:09.977Z,1.85
2023-01-23T15:32:09.888Z,1.88
2023-01-23T15:33:09.815Z,1.86
2023-01-23T15:34:09.782Z,1.91
2023-01-23T15:35:09.740Z,1.91
2023-01-23T15:36:09.797Z,1.91
2023-01-23T15:37:09.655Z,1.94
2023-01-23T15:38:09.743Z,1.90
2023-01-23T15:39:09.581Z,1.92
2023-01-23T15:40:09.554Z,1.93
2023-01-23T15:41:09.502Z,1.95
2023-01-23T15:42:09.450Z,1.90
2023-01-23T15:43:09.404Z,1.94
2023-01-23T15:44:09.384Z,1.89
2023-01-23T15:45:09.352Z,1.92
2023-01-23T15:46:09.304Z,1.90
2023-01-23T15:47:09.248Z,1.90
2023-01-23T15:48:09.228Z,1.92
2023-01-23T15:49:23.507Z,1.92
2023-01-23T15:50:10.125Z,1.93
2023-01-23T15:51:09.091Z,1.93
2023-01-23T15:52:09.130Z,1.93
2023-01-23T15:53:08.998Z,1.93
2023-01-23T15:54:08.960Z,1.96
2023-01-23T15:55:08.926Z,1.94
2023-01-23T19:33:00.397Z,1.46
2023-01-23T19:43:59.999Z,1.43
2023-01-23T19:49:01.236Z,1.45
2023-01-23T19:49:59.766Z,1.46
2023-01-23T19:50:59.743Z,1.43
2023-01-23T19:51:59.773Z,1.45
2023-01-23T19:52:59.655Z,1.43
2023-01-23T19:53:59.621Z,1.44
2023-01-23T19:54:59.592Z,1.44
2023-01-23T19:55:59.538Z,1.41
2023-01-23T19:56:59.512Z,1.42
2023-01-23T19:57:59.506Z,1.43
2023-01-23T19:58:59.428Z,1.39
2023-01-23T19:59:59.392Z,1.44
2023-01-23T20:00:59.363Z,1.42
2023-01-23T20:01:59.379Z,1.43
2023-01-23T20:02:59.272Z,1.42
2023-01-23T20:03:59.229Z,1.42
2023-01-23T20:04:59.201Z,1.44
2023-01-23T20:05:59.176Z,1.44
2023-01-23T20:06:59.126Z,1.45
2023-01-23T20:07:59.210Z,1.45
2023-01-23T20:08:59.077Z,1.43
2023-01-23T20:09:59.011Z,1.42
2023-01-23T20:10:58.999Z,1.41
2023-01-23T20:11:58.943Z,1.41
2023-01-23T20:12:58.914Z,1.39
2023-01-23T23:55:50.418Z,1.06
